sensor_id;sensor_type;location;lat;lon;timestamp;P1;durP1;ratioP1;P2;durP2;ratioP2
23426;SDS011;41148;45.420;10.952;2023-02-02T00:01:30;5.32;;;4.32;;
23426;SDS011;41148;45.420;10.952;2023-02-02T00:03:58;4.65;;;3.92;;
23426;SDS011;41148;45.420;10.952;2023-02-02T00:06:26;3.38;;;3.17;;
23426;SDS011;41148;45.420;10.952;2023-02-02T00:08:56;19.35;;;5.38;;
23426;SDS011;41148;45.420;10.952;2023-02-02T00:11:25;3.42;;;2.55;;
23426;SDS011;41148;45.420;10.952;2023-02-02T00:13:53;8.43;;;5.25;;
23426;SDS011;41148;45.420;10.952;2023-02-02T00:18:58;4.03;;;3.70;;
23426;SDS011;41148;45.420;10.952;2023-02-02T00:21:30;5.57;;;5.15;;
23426;SDS011;41148;45.420;10.952;2023-02-02T00:23:57;6.55;;;6.15;;
23426;SDS011;41148;45.420;10.952;2023-02-02T00:26:25;7.85;;;2.92;;
23426;SDS011;41148;45.420;10.952;2023-02-02T00:28:52;4.93;;;4.63;;
23426;SDS011;41148;45.420;10.952;2023-02-02T00:31:21;4.70;;;3.83;;
23426;SDS011;41148;45.420;10.952;2023-02-02T00:33:49;2.00;;;1.90;;
23426;SDS011;41148;45.420;10.952;2023-02-02T00:36:17;4.68;;;3.85;;
23426;SDS011;41148;45.420;10.952;2023-02-02T00:38:46;5.80;;;4.43;;
23426;SDS011;41148;45.420;10.952;2023-02-02T00:41:15;4.68;;;3.67;;
23426;SDS011;41148;45.420;10.952;2023-02-02T00:43:43;5.80;;;4.40;;
23426;SDS011;41148;45.420;10.952;2023-02-02T00:46:16;2.15;;;2.05;;
23426;SDS011;41148;45.420;10.952;2023-02-02T00:48:45;2.55;;;2.45;;
23426;SDS011;41148;45.420;10.952;2023-02-02T00:51:12;20.33;;;5.55;;
23426;SDS011;41148;45.420;10.952;2023-02-02T00:53:39;4.72;;;3.20;;
23426;SDS011;41148;45.420;10.952;2023-02-02T00:56:07;4.20;;;3.72;;
23426;SDS011;41148;45.420;10.952;2023-02-02T00:58:34;3.60;;;3.38;;
23426;SDS011;41148;45.420;10.952;2023-02-02T01:01:01;3.42;;;3.08;;
23426;SDS011;41148;45.420;10.952;2023-02-02T01:03:29;5.40;;;4.10;;
23426;SDS011;41148;45.420;10.952;2023-02-02T01:05:56;10.25;;;2.88;;
23426;SDS011;41148;45.420;10.952;2023-02-02T01:08:24;2.78;;;2.67;;
23426;SDS011;41148;45.420;10.952;2023-02-02T01:10:51;4.07;;;3.72;;
23426;SDS011;41148;45.420;10.952;2023-02-02T01:13:21;4.05;;;3.85;;
23426;SDS011;41148;45.420;10.952;2023-02-02T01:15:53;6.20;;;5.28;;
23426;SDS011;41148;45.420;10.952;2023-02-02T01:18:22;5.43;;;5.07;;
23426;SDS011;41148;45.420;10.952;2023-02-02T01:20:57;15.02;;;5.53;;
23426;SDS011;41148;45.420;10.952;2023-02-02T01:23:26;3.35;;;3.03;;
23426;SDS011;41148;45.420;10.952;2023-02-02T01:25:57;6.07;;;4.88;;
23426;SDS011;41148;45.420;10.952;2023-02-02T01:28:26;5.18;;;4.75;;
23426;SDS011;41148;45.420;10.952;2023-02-02T01:30:54;6.93;;;4.20;;
23426;SDS011;41148;45.420;10.952;2023-02-02T01:33:23;2.85;;;2.70;;
23426;SDS011;41148;45.420;10.952;2023-02-02T01:35:51;4.22;;;3.80;;
23426;SDS011;41148;45.420;10.952;2023-02-02T01:38:22;4.80;;;4.40;;
23426;SDS011;41148;45.420;10.952;2023-02-02T01:40:53;4.82;;;4.53;;
23426;SDS011;41148;45.420;10.952;2023-02-02T01:45:51;10.60;;;3.42;;
23426;SDS011;41148;45.420;10.952;2023-02-02T01:48:20;2.67;;;2.58;;
23426;SDS011;41148;45.420;10.952;2023-02-02T01:50:52;2.78;;;2.67;;
23426;SDS011;41148;45.420;10.952;2023-02-02T01:53:25;2.30;;;2.20;;
23426;SDS011;41148;45.420;10.952;2023-02-02T01:55:54;1.48;;;1.48;;
23426;SDS011;41148;45.420;10.952;2023-02-02T01:58:24;5.18;;;4.78;;
23426;SDS011;41148;45.420;10.952;2023-02-02T02:00:55;2.88;;;2.60;;
23426;SDS011;41148;45.420;10.952;2023-02-02T02:03:23;3.97;;;3.67;;
23426;SDS011;41148;45.420;10.952;2023-02-02T02:05:57;8.98;;;6.95;;
23426;SDS011;41148;45.420;10.952;2023-02-02T02:08:34;2.58;;;2.38;;
23426;SDS011;41148;45.420;10.952;2023-02-02T02:11:05;2.90;;;2.65;;
23426;SDS011;41148;45.420;10.952;2023-02-02T02:13:33;4.90;;;4.45;;
23426;SDS011;41148;45.420;10.952;2023-02-02T02:16:31;2.40;;;2.30;;
23426;SDS011;41148;45.420;10.952;2023-02-02T02:19:59;2.53;;;2.42;;
23426;SDS011;41148;45.420;10.952;2023-02-02T02:34:26;8.75;;;5.00;;
23426;SDS011;41148;45.420;10.952;2023-02-02T02:37:09;38.92;;;4.60;;
23426;SDS011;41148;45.420;10.952;2023-02-02T02:39:48;5.57;;;4.35;;
23426;SDS011;41148;45.420;10.952;2023-02-02T02:42:23;3.95;;;2.45;;
23426;SDS011;41148;45.420;10.952;2023-02-02T02:44:53;5.28;;;2.83;;
23426;SDS011;41148;45.420;10.952;2023-02-02T02:47:22;1.27;;;1.25;;
23426;SDS011;41148;45.420;10.952;2023-02-02T02:49:50;2.17;;;2.08;;
23426;SDS011;41148;45.420;10.952;2023-02-02T02:52:17;1.38;;;1.35;;
23426;SDS011;41148;45.420;10.952;2023-02-02T02:54:46;1.50;;;1.48;;
23426;SDS011;41148;45.420;10.952;2023-02-02T02:57:22;4.50;;;3.70;;
23426;SDS011;41148;45.420;10.952;2023-02-02T03:03:06;7.40;;;3.22;;
23426;SDS011;41148;45.420;10.952;2023-02-02T03:06:01;2.22;;;2.08;;
23426;SDS011;41148;45.420;10.952;2023-02-02T03:08:51;2.72;;;2.63;;
23426;SDS011;41148;45.420;10.952;2023-02-02T03:11:31;1.42;;;1.35;;
23426;SDS011;41148;45.420;10.952;2023-02-02T03:14:00;6.03;;;3.58;;
23426;SDS011;41148;45.420;10.952;2023-02-02T03:16:28;1.23;;;1.23;;
23426;SDS011;41148;45.420;10.952;2023-02-02T03:18:55;3.83;;;3.63;;
23426;SDS011;41148;45.420;10.952;2023-02-02T03:21:23;2.85;;;2.33;;
23426;SDS011;41148;45.420;10.952;2023-02-02T03:23:50;5.30;;;4.75;;
23426;SDS011;41148;45.420;10.952;2023-02-02T03:26:17;1.52;;;1.52;;
23426;SDS011;41148;45.420;10.952;2023-02-02T03:28:45;2.95;;;2.78;;
23426;SDS011;41148;45.420;10.952;2023-02-02T03:31:12;2.95;;;2.85;;
23426;SDS011;41148;45.420;10.952;2023-02-02T03:33:40;1.42;;;1.42;;
23426;SDS011;41148;45.420;10.952;2023-02-02T03:36:07;2.35;;;2.25;;
23426;SDS011;41148;45.420;10.952;2023-02-02T03:38:35;19.00;;;4.45;;
23426;SDS011;41148;45.420;10.952;2023-02-02T03:41:03;3.67;;;3.35;;
23426;SDS011;41148;45.420;10.952;2023-02-02T03:43:31;2.33;;;2.13;;
23426;SDS011;41148;45.420;10.952;2023-02-02T03:45:59;2.22;;;2.08;;
23426;SDS011;41148;45.420;10.952;2023-02-02T03:48:30;3.00;;;2.80;;
23426;SDS011;41148;45.420;10.952;2023-02-02T03:51:04;2.97;;;2.08;;
23426;SDS011;41148;45.420;10.952;2023-02-02T03:53:32;4.07;;;3.72;;
23426;SDS011;41148;45.420;10.952;2023-02-02T03:55:59;4.45;;;4.05;;
23426;SDS011;41148;45.420;10.952;2023-02-02T03:58:27;4.03;;;3.72;;
23426;SDS011;41148;45.420;10.952;2023-02-02T04:01:04;2.70;;;2.53;;
23426;SDS011;41148;45.420;10.952;2023-02-02T04:03:34;4.47;;;4.18;;
23426;SDS011;41148;45.420;10.952;2023-02-02T04:06:01;2.80;;;2.33;;
23426;SDS011;41148;45.420;10.952;2023-02-02T04:08:29;2.80;;;2.60;;
23426;SDS011;41148;45.420;10.952;2023-02-02T04:10:57;3.20;;;2.60;;
23426;SDS011;41148;45.420;10.952;2023-02-02T04:13:25;8.23;;;2.08;;
23426;SDS011;41148;45.420;10.952;2023-02-02T04:15:59;25.70;;;4.03;;
23426;SDS011;41148;45.420;10.952;2023-02-02T04:18:27;1.52;;;1.52;;
23426;SDS011;41148;45.420;10.952;2023-02-02T04:20:58;4.13;;;3.85;;
23426;SDS011;41148;45.420;10.952;2023-02-02T04:23:27;3.60;;;3.22;;
23426;SDS011;41148;45.420;10.952;2023-02-02T04:25:55;1.98;;;1.83;;
23426;SDS011;41148;45.420;10.952;2023-02-02T04:28:24;7.95;;;5.05;;
23426;SDS011;41148;45.420;10.952;2023-02-02T04:30:53;3.92;;;3.60;;
23426;SDS011;41148;45.420;10.952;2023-02-02T04:33:22;3.28;;;2.90;;
23426;SDS011;41148;45.420;10.952;2023-02-02T04:35:50;3.63;;;3.42;;
23426;SDS011;41148;45.420;10.952;2023-02-02T04:38:18;7.60;;;2.47;;
23426;SDS011;41148;45.420;10.952;2023-02-02T04:40:46;7.82;;;5.03;;
23426;SDS011;41148;45.420;10.952;2023-02-02T04:43:14;17.80;;;2.45;;
23426;SDS011;41148;45.420;10.952;2023-02-02T04:45:42;2.08;;;1.98;;
23426;SDS011;41148;45.420;10.952;2023-02-02T04:48:10;3.97;;;2.67;;
23426;SDS011;41148;45.420;10.952;2023-02-02T04:50:37;6.35;;;3.63;;
23426;SDS011;41148;45.420;10.952;2023-02-02T04:53:05;3.45;;;2.80;;
23426;SDS011;41148;45.420;10.952;2023-02-02T04:55:34;4.47;;;3.67;;
23426;SDS011;41148;45.420;10.952;2023-02-02T04:58:04;3.42;;;3.28;;
23426;SDS011;41148;45.420;10.952;2023-02-02T05:00:32;14.18;;;4.03;;
23426;SDS011;41148;45.420;10.952;2023-02-02T05:02:59;6.88;;;4.72;;
23426;SDS011;41148;45.420;10.952;2023-02-02T05:05:27;2.67;;;2.53;;
23426;SDS011;41148;45.420;10.952;2023-02-02T05:07:54;4.18;;;3.78;;
23426;SDS011;41148;45.420;10.952;2023-02-02T05:10:22;9.77;;;3.25;;
23426;SDS011;41148;45.420;10.952;2023-02-02T05:12:51;3.45;;;3.25;;
23426;SDS011;41148;45.420;10.952;2023-02-02T05:15:19;3.15;;;2.92;;
23426;SDS011;41148;45.420;10.952;2023-02-02T05:17:48;3.92;;;3.63;;
23426;SDS011;41148;45.420;10.952;2023-02-02T05:20:16;2.10;;;2.00;;
23426;SDS011;41148;45.420;10.952;2023-02-02T05:22:43;3.83;;;2.13;;
23426;SDS011;41148;45.420;10.952;2023-02-02T05:25:14;3.58;;;2.47;;
23426;SDS011;41148;45.420;10.952;2023-02-02T05:27:42;5.18;;;2.85;;
23426;SDS011;41148;45.420;10.952;2023-02-02T05:30:11;4.35;;;4.03;;
23426;SDS011;41148;45.420;10.952;2023-02-02T05:32:40;1.95;;;1.95;;
23426;SDS011;41148;45.420;10.952;2023-02-02T05:35:07;2.28;;;2.00;;
23426;SDS011;41148;45.420;10.952;2023-02-02T05:37:36;2.83;;;2.60;;
23426;SDS011;41148;45.420;10.952;2023-02-02T05:40:03;2.08;;;1.98;;
23426;SDS011;41148;45.420;10.952;2023-02-02T05:42:30;6.45;;;2.90;;
23426;SDS011;41148;45.420;10.952;2023-02-02T05:44:58;5.00;;;3.38;;
23426;SDS011;41148;45.420;10.952;2023-02-02T05:47:25;3.03;;;2.90;;
23426;SDS011;41148;45.420;10.952;2023-02-02T05:49:52;3.33;;;2.28;;
23426;SDS011;41148;45.420;10.952;2023-02-02T05:52:20;2.58;;;2.47;;
23426;SDS011;41148;45.420;10.952;2023-02-02T05:54:50;2.03;;;1.92;;
23426;SDS011;41148;45.420;10.952;2023-02-02T05:57:18;3.00;;;2.78;;
23426;SDS011;41148;45.420;10.952;2023-02-02T05:59:45;3.53;;;3.22;;
23426;SDS011;41148;45.420;10.952;2023-02-02T06:02:13;1.48;;;1.48;;
23426;SDS011;41148;45.420;10.952;2023-02-02T06:04:40;3.78;;;2.53;;
23426;SDS011;41148;45.420;10.952;2023-02-02T06:07:07;1.13;;;1.13;;
23426;SDS011;41148;45.420;10.952;2023-02-02T06:09:35;3.60;;;1.45;;
23426;SDS011;41148;45.420;10.952;2023-02-02T06:12:02;1.35;;;1.35;;
23426;SDS011;41148;45.420;10.952;2023-02-02T06:14:30;4.93;;;4.18;;
23426;SDS011;41148;45.420;10.952;2023-02-02T06:16:57;1.45;;;1.35;;
23426;SDS011;41148;45.420;10.952;2023-02-02T06:19:25;6.55;;;1.70;;
23426;SDS011;41148;45.420;10.952;2023-02-02T06:21:52;1.30;;;1.30;;
23426;SDS011;41148;45.420;10.952;2023-02-02T06:24:20;1.13;;;1.13;;
23426;SDS011;41148;45.420;10.952;2023-02-02T06:26:47;4.90;;;1.17;;
23426;SDS011;41148;45.420;10.952;2023-02-02T06:29:15;1.60;;;1.55;;
23426;SDS011;41148;45.420;10.952;2023-02-02T06:31:42;1.58;;;1.58;;
23426;SDS011;41148;45.420;10.952;2023-02-02T06:34:10;3.15;;;2.95;;
23426;SDS011;41148;45.420;10.952;2023-02-02T06:36:41;0.82;;;0.82;;
23426;SDS011;41148;45.420;10.952;2023-02-02T06:39:08;0.98;;;0.98;;
23426;SDS011;41148;45.420;10.952;2023-02-02T06:41:36;0.52;;;0.52;;
23426;SDS011;41148;45.420;10.952;2023-02-02T06:44:03;2.03;;;1.92;;
23426;SDS011;41148;45.420;10.952;2023-02-02T06:46:31;1.30;;;1.30;;
23426;SDS011;41148;45.420;10.952;2023-02-02T06:48:58;1.45;;;1.35;;
23426;SDS011;41148;45.420;10.952;2023-02-02T06:51:26;3.00;;;2.72;;
23426;SDS011;41148;45.420;10.952;2023-02-02T06:53:53;3.33;;;3.13;;
23426;SDS011;41148;45.420;10.952;2023-02-02T06:56:24;0.60;;;0.60;;
23426;SDS011;41148;45.420;10.952;2023-02-02T06:58:52;1.35;;;1.27;;
23426;SDS011;41148;45.420;10.952;2023-02-02T07:01:19;3.13;;;2.92;;
23426;SDS011;41148;45.420;10.952;2023-02-02T07:03:47;1.08;;;1.02;;
23426;SDS011;41148;45.420;10.952;2023-02-02T07:06:17;2.10;;;2.00;;
23426;SDS011;41148;45.420;10.952;2023-02-02T07:08:46;2.40;;;1.77;;
23426;SDS011;41148;45.420;10.952;2023-02-02T07:11:29;1.23;;;1.13;;
23426;SDS011;41148;45.420;10.952;2023-02-02T07:14:01;1.27;;;1.27;;
23426;SDS011;41148;45.420;10.952;2023-02-02T07:16:29;2.55;;;2.05;;
23426;SDS011;41148;45.420;10.952;2023-02-02T07:18:58;1.83;;;1.80;;
23426;SDS011;41148;45.420;10.952;2023-02-02T07:21:25;1.83;;;1.83;;
23426;SDS011;41148;45.420;10.952;2023-02-02T07:24:02;2.60;;;2.45;;
23426;SDS011;41148;45.420;10.952;2023-02-02T07:26:30;2.92;;;2.53;;
23426;SDS011;41148;45.420;10.952;2023-02-02T07:29:02;1.33;;;1.27;;
23426;SDS011;41148;45.420;10.952;2023-02-02T07:31:30;1.30;;;1.25;;
23426;SDS011;41148;45.420;10.952;2023-02-02T07:36:29;2.53;;;2.00;;
23426;SDS011;41148;45.420;10.952;2023-02-02T07:38:57;2.40;;;2.28;;
23426;SDS011;41148;45.420;10.952;2023-02-02T07:41:25;2.03;;;1.50;;
23426;SDS011;41148;45.420;10.952;2023-02-02T07:43:53;2.70;;;1.83;;
23426;SDS011;41148;45.420;10.952;2023-02-02T07:46:21;4.32;;;2.28;;
23426;SDS011;41148;45.420;10.952;2023-02-02T07:48:51;3.53;;;3.22;;
23426;SDS011;41148;45.420;10.952;2023-02-02T07:51:20;1.40;;;1.40;;
23426;SDS011;41148;45.420;10.952;2023-02-02T07:53:49;3.03;;;2.92;;
23426;SDS011;41148;45.420;10.952;2023-02-02T07:56:19;1.42;;;1.42;;
23426;SDS011;41148;45.420;10.952;2023-02-02T07:58:50;3.93;;;3.63;;
23426;SDS011;41148;45.420;10.952;2023-02-02T08:01:19;3.90;;;3.70;;
23426;SDS011;41148;45.420;10.952;2023-02-02T08:03:49;1.70;;;1.60;;
23426;SDS011;41148;45.420;10.952;2023-02-02T08:06:17;2.20;;;2.10;;
23426;SDS011;41148;45.420;10.952;2023-02-02T08:08:47;3.92;;;3.70;;
23426;SDS011;41148;45.420;10.952;2023-02-02T08:11:16;2.20;;;2.03;;
23426;SDS011;41148;45.420;10.952;2023-02-02T08:13:50;2.95;;;2.80;;
23426;SDS011;41148;45.420;10.952;2023-02-02T08:16:25;2.53;;;2.42;;
23426;SDS011;41148;45.420;10.952;2023-02-02T08:18:53;6.65;;;3.70;;
23426;SDS011;41148;45.420;10.952;2023-02-02T08:21:21;4.22;;;3.50;;
23426;SDS011;41148;45.420;10.952;2023-02-02T08:23:50;2.28;;;2.17;;
23426;SDS011;41148;45.420;10.952;2023-02-02T08:26:20;1.38;;;1.38;;
23426;SDS011;41148;45.420;10.952;2023-02-02T08:28:53;2.58;;;1.50;;
23426;SDS011;41148;45.420;10.952;2023-02-02T08:31:24;5.50;;;3.67;;
23426;SDS011;41148;45.420;10.952;2023-02-02T08:33:54;3.03;;;2.85;;
23426;SDS011;41148;45.420;10.952;2023-02-02T08:36:25;8.57;;;2.85;;
23426;SDS011;41148;45.420;10.952;2023-02-02T08:38:54;4.22;;;2.05;;
23426;SDS011;41148;45.420;10.952;2023-02-02T08:41:22;8.60;;;4.38;;
23426;SDS011;41148;45.420;10.952;2023-02-02T08:43:50;4.90;;;4.43;;
23426;SDS011;41148;45.420;10.952;2023-02-02T08:46:18;4.45;;;4.00;;
23426;SDS011;41148;45.420;10.952;2023-02-02T08:48:47;7.97;;;6.45;;
23426;SDS011;41148;45.420;10.952;2023-02-02T08:51:15;4.72;;;4.43;;
23426;SDS011;41148;45.420;10.952;2023-02-02T08:53:45;22.92;;;10.02;;
23426;SDS011;41148;45.420;10.952;2023-02-02T08:56:14;4.13;;;3.83;;
23426;SDS011;41148;45.420;10.952;2023-02-02T08:58:53;9.30;;;5.93;;
23426;SDS011;41148;45.420;10.952;2023-02-02T09:01:23;7.68;;;7.07;;
23426;SDS011;41148;45.420;10.952;2023-02-02T09:03:53;10.13;;;4.77;;
23426;SDS011;41148;45.420;10.952;2023-02-02T09:06:32;6.70;;;6.20;;
23426;SDS011;41148;45.420;10.952;2023-02-02T09:09:02;5.82;;;4.70;;
23426;SDS011;41148;45.420;10.952;2023-02-02T09:11:31;6.07;;;5.55;;
23426;SDS011;41148;45.420;10.952;2023-02-02T09:13:59;6.63;;;4.28;;
23426;SDS011;41148;45.420;10.952;2023-02-02T09:16:29;10.75;;;6.53;;
23426;SDS011;41148;45.420;10.952;2023-02-02T09:18:56;7.53;;;5.18;;
23426;SDS011;41148;45.420;10.952;2023-02-02T09:21:24;7.75;;;6.25;;
23426;SDS011;41148;45.420;10.952;2023-02-02T09:23:52;5.88;;;5.43;;
23426;SDS011;41148;45.420;10.952;2023-02-02T09:26:38;7.15;;;6.07;;
23426;SDS011;41148;45.420;10.952;2023-02-02T09:29:07;7.97;;;5.75;;
23426;SDS011;41148;45.420;10.952;2023-02-02T09:31:39;7.22;;;6.45;;
23426;SDS011;41148;45.420;10.952;2023-02-02T09:34:07;6.20;;;5.35;;
23426;SDS011;41148;45.420;10.952;2023-02-02T09:36:37;8.30;;;7.72;;
23426;SDS011;41148;45.420;10.952;2023-02-02T09:39:05;6.47;;;5.88;;
23426;SDS011;41148;45.420;10.952;2023-02-02T09:52:32;4.90;;;4.45;;
23426;SDS011;41148;45.420;10.952;2023-02-02T09:55:14;4.20;;;3.83;;
23426;SDS011;41148;45.420;10.952;2023-02-02T09:57:46;6.65;;;4.43;;
23426;SDS011;41148;45.420;10.952;2023-02-02T10:02:59;12.15;;;7.82;;
23426;SDS011;41148;45.420;10.952;2023-02-02T10:05:41;3.17;;;2.85;;
23426;SDS011;41148;45.420;10.952;2023-02-02T10:08:16;17.83;;;5.22;;
23426;SDS011;41148;45.420;10.952;2023-02-02T10:11:04;3.30;;;3.00;;
23426;SDS011;41148;45.420;10.952;2023-02-02T10:13:58;3.83;;;2.95;;
23426;SDS011;41148;45.420;10.952;2023-02-02T10:16:36;2.20;;;2.10;;
23426;SDS011;41148;45.420;10.952;2023-02-02T10:19:10;7.82;;;4.63;;
23426;SDS011;41148;45.420;10.952;2023-02-02T10:21:42;3.50;;;2.75;;
23426;SDS011;41148;45.420;10.952;2023-02-02T10:24:19;4.22;;;3.92;;
23426;SDS011;41148;45.420;10.952;2023-02-02T10:26:55;4.18;;;3.38;;
23426;SDS011;41148;45.420;10.952;2023-02-02T10:32:24;3.08;;;2.75;;
23426;SDS011;41148;45.420;10.952;2023-02-02T10:40:39;2.50;;;2.25;;
23426;SDS011;41148;45.420;10.952;2023-02-02T10:46:22;1.70;;;1.70;;
23426;SDS011;41148;45.420;10.952;2023-02-02T10:48:59;13.75;;;5.65;;
23426;SDS011;41148;45.420;10.952;2023-02-02T10:51:38;3.40;;;3.20;;
23426;SDS011;41148;45.420;10.952;2023-02-02T10:54:28;2.35;;;2.15;;
23426;SDS011;41148;45.420;10.952;2023-02-02T11:00:34;5.47;;;4.47;;
23426;SDS011;41148;45.420;10.952;2023-02-02T11:03:10;2.80;;;2.10;;
23426;SDS011;41148;45.420;10.952;2023-02-02T11:05:39;2.65;;;2.05;;
23426;SDS011;41148;45.420;10.952;2023-02-02T11:08:33;2.30;;;2.10;;
23426;SDS011;41148;45.420;10.952;2023-02-02T11:16:37;8.88;;;3.03;;
23426;SDS011;41148;45.420;10.952;2023-02-02T11:21:51;1.58;;;1.48;;
23426;SDS011;41148;45.420;10.952;2023-02-02T11:24:22;1.40;;;1.38;;
23426;SDS011;41148;45.420;10.952;2023-02-02T11:29:26;2.00;;;1.85;;
23426;SDS011;41148;45.420;10.952;2023-02-02T11:32:16;1.50;;;1.48;;
23426;SDS011;41148;45.420;10.952;2023-02-02T11:34:46;1.15;;;1.15;;
23426;SDS011;41148;45.420;10.952;2023-02-02T11:37:14;1.90;;;1.23;;
23426;SDS011;41148;45.420;10.952;2023-02-02T11:39:47;1.85;;;1.63;;
23426;SDS011;41148;45.420;10.952;2023-02-02T11:42:16;1.15;;;1.15;;
23426;SDS011;41148;45.420;10.952;2023-02-02T11:47:20;2.15;;;2.05;;
23426;SDS011;41148;45.420;10.952;2023-02-02T11:49:52;1.65;;;1.58;;
23426;SDS011;41148;45.420;10.952;2023-02-02T11:52:25;1.50;;;1.30;;
23426;SDS011;41148;45.420;10.952;2023-02-02T11:54:59;1.15;;;1.13;;
23426;SDS011;41148;45.420;10.952;2023-02-02T11:57:28;0.82;;;0.82;;
23426;SDS011;41148;45.420;10.952;2023-02-02T12:02:36;0.65;;;0.65;;
23426;SDS011;41148;45.420;10.952;2023-02-02T12:07:46;0.85;;;0.85;;
23426;SDS011;41148;45.420;10.952;2023-02-02T12:10:31;0.38;;;0.38;;
23426;SDS011;41148;45.420;10.952;2023-02-02T12:13:12;3.03;;;0.70;;
23426;SDS011;41148;45.420;10.952;2023-02-02T12:15:59;0.57;;;0.57;;
23426;SDS011;41148;45.420;10.952;2023-02-02T12:19:12;0.45;;;0.45;;
23426;SDS011;41148;45.420;10.952;2023-02-02T12:21:49;0.45;;;0.45;;
23426;SDS011;41148;45.420;10.952;2023-02-02T12:24:26;0.80;;;0.80;;
23426;SDS011;41148;45.420;10.952;2023-02-02T12:27:10;0.65;;;0.65;;
23426;SDS011;41148;45.420;10.952;2023-02-02T12:32:29;0.63;;;0.63;;
23426;SDS011;41148;45.420;10.952;2023-02-02T12:41:20;1.50;;;1.40;;
23426;SDS011;41148;45.420;10.952;2023-02-02T13:12:15;0.40;;;0.40;;
23426;SDS011;41148;45.420;10.952;2023-02-02T13:14:54;0.40;;;0.40;;
23426;SDS011;41148;45.420;10.952;2023-02-02T13:23:11;1.35;;;1.25;;
23426;SDS011;41148;45.420;10.952;2023-02-02T13:25:52;0.65;;;0.65;;
23426;SDS011;41148;45.420;10.952;2023-02-02T13:31:15;0.90;;;0.90;;
23426;SDS011;41148;45.420;10.952;2023-02-02T13:33:48;1.75;;;1.65;;
23426;SDS011;41148;45.420;10.952;2023-02-02T13:36:26;1.65;;;1.55;;
23426;SDS011;41148;45.420;10.952;2023-02-02T13:39:02;0.85;;;0.75;;
23426;SDS011;41148;45.420;10.952;2023-02-02T13:41:48;4.18;;;1.95;;
23426;SDS011;41148;45.420;10.952;2023-02-02T13:44:27;12.75;;;1.98;;
23426;SDS011;41148;45.420;10.952;2023-02-02T13:47:05;1.17;;;1.17;;
23426;SDS011;41148;45.420;10.952;2023-02-02T13:49:45;0.90;;;0.90;;
23426;SDS011;41148;45.420;10.952;2023-02-02T13:54:53;0.55;;;0.55;;
23426;SDS011;41148;45.420;10.952;2023-02-02T14:00:51;2.42;;;1.90;;
23426;SDS011;41148;45.420;10.952;2023-02-02T14:04:15;1.08;;;1.08;;
23426;SDS011;41148;45.420;10.952;2023-02-02T14:06:25;1.83;;;1.35;;
23426;SDS011;41148;45.420;10.952;2023-02-02T14:08:57;4.05;;;2.22;;
23426;SDS011;41148;45.420;10.952;2023-02-02T14:11:36;1.73;;;1.63;;
23426;SDS011;41148;45.420;10.952;2023-02-02T14:27:14;1.42;;;1.40;;
23426;SDS011;41148;45.420;10.952;2023-02-02T14:29:57;2.60;;;2.40;;
23426;SDS011;41148;45.420;10.952;2023-02-02T14:48:46;2.05;;;1.42;;
23426;SDS011;41148;45.420;10.952;2023-02-02T14:51:20;1.73;;;1.60;;
23426;SDS011;41148;45.420;10.952;2023-02-02T14:53:53;2.08;;;1.98;;
23426;SDS011;41148;45.420;10.952;2023-02-02T14:56:40;1.48;;;1.48;;
23426;SDS011;41148;45.420;10.952;2023-02-02T14:59:18;3.22;;;2.83;;
23426;SDS011;41148;45.420;10.952;2023-02-02T15:01:53;2.00;;;1.85;;
23426;SDS011;41148;45.420;10.952;2023-02-02T15:04:27;1.75;;;1.70;;
23426;SDS011;41148;45.420;10.952;2023-02-02T15:06:55;1.63;;;1.52;;
23426;SDS011;41148;45.420;10.952;2023-02-02T15:10:03;3.25;;;3.00;;
23426;SDS011;41148;45.420;10.952;2023-02-02T15:12:42;2.80;;;1.92;;
23426;SDS011;41148;45.420;10.952;2023-02-02T15:17:59;3.17;;;2.78;;
23426;SDS011;41148;45.420;10.952;2023-02-02T15:20:42;2.78;;;2.58;;
23426;SDS011;41148;45.420;10.952;2023-02-02T15:23:31;2.13;;;1.35;;
23426;SDS011;41148;45.420;10.952;2023-02-02T15:29:04;1.92;;;1.83;;
23426;SDS011;41148;45.420;10.952;2023-02-02T15:31:43;0.93;;;0.93;;
23426;SDS011;41148;45.420;10.952;2023-02-02T15:34:13;0.75;;;0.75;;
23426;SDS011;41148;45.420;10.952;2023-02-02T15:36:43;0.82;;;0.82;;
23426;SDS011;41148;45.420;10.952;2023-02-02T15:39:19;0.85;;;0.85;;
23426;SDS011;41148;45.420;10.952;2023-02-02T15:41:51;6.20;;;2.33;;
23426;SDS011;41148;45.420;10.952;2023-02-02T15:44:43;1.08;;;1.08;;
23426;SDS011;41148;45.420;10.952;2023-02-02T15:47:15;1.05;;;1.05;;
23426;SDS011;41148;45.420;10.952;2023-02-02T15:49:45;0.77;;;0.77;;
23426;SDS011;41148;45.420;10.952;2023-02-02T15:52:20;1.73;;;1.63;;
23426;SDS011;41148;45.420;10.952;2023-02-02T15:55:29;0.50;;;0.50;;
23426;SDS011;41148;45.420;10.952;2023-02-02T15:57:58;0.65;;;0.65;;
23426;SDS011;41148;45.420;10.952;2023-02-02T16:03:12;1.08;;;1.08;;
23426;SDS011;41148;45.420;10.952;2023-02-02T16:05:48;0.85;;;0.85;;
23426;SDS011;41148;45.420;10.952;2023-02-02T16:08:20;0.98;;;0.95;;
23426;SDS011;41148;45.420;10.952;2023-02-02T16:11:28;0.40;;;0.40;;
23426;SDS011;41148;45.420;10.952;2023-02-02T16:13:59;2.05;;;1.92;;
23426;SDS011;41148;45.420;10.952;2023-02-02T16:16:36;1.30;;;1.30;;
23426;SDS011;41148;45.420;10.952;2023-02-02T16:21:47;0.40;;;0.40;;
23426;SDS011;41148;45.420;10.952;2023-02-02T16:24:29;0.80;;;0.77;;
23426;SDS011;41148;45.420;10.952;2023-02-02T16:27:00;0.77;;;0.77;;
23426;SDS011;41148;45.420;10.952;2023-02-02T16:29:32;0.50;;;0.50;;
23426;SDS011;41148;45.420;10.952;2023-02-02T16:32:00;0.60;;;0.60;;
23426;SDS011;41148;45.420;10.952;2023-02-02T16:37:06;0.73;;;0.73;;
23426;SDS011;41148;45.420;10.952;2023-02-02T16:39:38;1.70;;;1.48;;
23426;SDS011;41148;45.420;10.952;2023-02-02T16:42:07;0.95;;;0.95;;
23426;SDS011;41148;45.420;10.952;2023-02-02T16:44:38;0.43;;;0.43;;
23426;SDS011;41148;45.420;10.952;2023-02-02T16:55:22;0.90;;;0.90;;
23426;SDS011;41148;45.420;10.952;2023-02-02T16:57:50;1.27;;;1.17;;
23426;SDS011;41148;45.420;10.952;2023-02-02T17:00:22;1.95;;;1.85;;
23426;SDS011;41148;45.420;10.952;2023-02-02T17:03:00;0.70;;;0.70;;
23426;SDS011;41148;45.420;10.952;2023-02-02T17:08:31;2.13;;;1.90;;
23426;SDS011;41148;45.420;10.952;2023-02-02T17:11:03;9.53;;;2.53;;
23426;SDS011;41148;45.420;10.952;2023-02-02T17:13:45;1.00;;;1.00;;
23426;SDS011;41148;45.420;10.952;2023-02-02T17:16:14;5.10;;;2.05;;
23426;SDS011;41148;45.420;10.952;2023-02-02T17:18:46;0.57;;;0.57;;
23426;SDS011;41148;45.420;10.952;2023-02-02T17:21:15;1.45;;;1.40;;
23426;SDS011;41148;45.420;10.952;2023-02-02T17:23:45;1.75;;;1.70;;
23426;SDS011;41148;45.420;10.952;2023-02-02T17:26:13;2.22;;;2.03;;
23426;SDS011;41148;45.420;10.952;2023-02-02T17:28:42;4.93;;;3.90;;
23426;SDS011;41148;45.420;10.952;2023-02-02T17:31:13;7.88;;;4.13;;
23426;SDS011;41148;45.420;10.952;2023-02-02T17:33:42;7.00;;;1.75;;
23426;SDS011;41148;45.420;10.952;2023-02-02T17:36:11;0.68;;;0.68;;
23426;SDS011;41148;45.420;10.952;2023-02-02T17:38:39;1.30;;;1.20;;
23426;SDS011;41148;45.420;10.952;2023-02-02T17:41:08;1.63;;;1.45;;
23426;SDS011;41148;45.420;10.952;2023-02-02T17:46:07;0.52;;;0.52;;
23426;SDS011;41148;45.420;10.952;2023-02-02T17:48:38;2.63;;;2.25;;
23426;SDS011;41148;45.420;10.952;2023-02-02T17:51:07;1.77;;;1.67;;
23426;SDS011;41148;45.420;10.952;2023-02-02T17:53:42;3.13;;;2.92;;
23426;SDS011;41148;45.420;10.952;2023-02-02T17:56:10;3.55;;;2.05;;
23426;SDS011;41148;45.420;10.952;2023-02-02T17:58:37;1.92;;;1.80;;
23426;SDS011;41148;45.420;10.952;2023-02-02T18:01:05;10.75;;;3.75;;